createdAt,value
2023-04-12T00:00:45.710Z,994.90
2023-04-12T00:01:45.798Z,994.86
2023-04-12T00:02:45.890Z,994.88
2023-04-12T00:03:45.710Z,994.81
2023-04-12T00:04:45.771Z,994.81
2023-04-12T00:05:45.492Z,994.79
2023-04-12T00:06:45.473Z,994.80
2023-04-12T00:07:45.466Z,994.78
2023-04-12T00:08:45.456Z,994.76
2023-04-12T00:09:45.435Z,994.74
2023-04-12T00:10:45.412Z,994.72
2023-04-12T00:11:45.417Z,994.69
2023-04-12T00:12:45.388Z,994.64
2023-04-12T00:13:45.370Z,994.63
2023-04-12T00:14:45.367Z,994.63
2023-04-12T00:15:52.753Z,994.65
2023-04-12T00:16:45.308Z,994.70
2023-04-12T00:17:45.354Z,994.67
2023-04-12T00:18:45.290Z,994.66
2023-04-12T00:19:45.288Z,994.59
2023-04-12T00:20:45.283Z,994.61
2023-04-12T00:21:45.260Z,994.59
2023-04-12T00:22:45.246Z,994.58
2023-04-12T00:23:45.259Z,994.57
2023-04-12T00:24:45.231Z,994.59
2023-04-12T00:25:45.212Z,994.62
2023-04-12T00:26:45.182Z,994.59
2023-04-12T00:27:45.179Z,994.58
2023-04-12T00:28:45.151Z,994.54
2023-04-12T00:29:45.147Z,994.56
2023-04-12T00:30:45.149Z,994.55
2023-04-12T00:31:45.217Z,994.52
2023-04-12T00:32:45.116Z,994.49
2023-04-12T00:33:45.096Z,994.53
2023-04-12T00:34:45.071Z,994.51
2023-04-12T00:35:45.151Z,994.52
2023-04-12T00:36:45.038Z,994.55
2023-04-12T00:37:45.033Z,994.53
2023-04-12T00:38:45.008Z,994.49
2023-04-12T00:39:45.008Z,994.49
2023-04-12T00:40:45.011Z,994.48
2023-04-12T00:41:44.972Z,994.45
2023-04-12T00:42:44.961Z,994.45
2023-04-12T00:43:44.952Z,994.42
2023-04-12T00:44:44.927Z,994.43
2023-04-12T00:45:44.941Z,994.40
2023-04-12T00:46:44.918Z,994.41
2023-04-12T00:47:44.971Z,994.38
2023-04-12T00:48:44.883Z,994.39
2023-04-12T00:49:44.885Z,994.33
2023-04-12T00:50:44.919Z,994.34
2023-04-12T00:51:44.845Z,994.32
2023-04-12T00:52:44.834Z,994.37
2023-04-12T00:53:44.813Z,994.33
2023-04-12T00:54:44.835Z,994.34
2023-04-12T00:55:44.831Z,994.34
2023-04-12T00:56:44.767Z,994.32
2023-04-12T00:57:44.767Z,994.32
2023-04-12T00:58:44.758Z,994.24
2023-04-12T00:59:44.735Z,994.24
2023-04-12T01:00:44.791Z,994.20
2023-04-12T01:01:44.751Z,994.18
2023-04-12T01:02:44.903Z,994.18
2023-04-12T01:03:44.743Z,994.19
2023-04-12T01:04:44.655Z,994.13
2023-04-12T01:05:44.671Z,994.11
2023-04-12T01:06:44.645Z,994.14
2023-04-12T01:07:44.655Z,994.10
2023-04-12T01:08:44.607Z,994.11
2023-04-12T01:09:44.605Z,994.11
2023-04-12T01:10:44.601Z,994.05
2023-04-12T01:11:44.579Z,994.05
2023-04-12T01:12:44.567Z,994.01
2023-04-12T01:13:44.552Z,993.96
2023-04-12T01:14:44.530Z,993.92
2023-04-12T01:15:44.547Z,993.95
2023-04-12T01:16:44.672Z,993.89
2023-04-12T01:17:44.519Z,993.86
2023-04-12T01:18:44.474Z,993.82
2023-04-12T01:19:44.463Z,993.81
2023-04-12T01:20:44.495Z,993.73
2023-04-12T01:21:44.442Z,993.74
2023-04-12T01:22:44.414Z,993.76
2023-04-12T01:23:44.408Z,993.75
2023-04-12T01:24:44.385Z,993.76
2023-04-12T01:25:44.381Z,993.78
2023-04-12T01:26:44.472Z,993.72
2023-04-12T01:27:44.359Z,993.68
2023-04-12T01:28:44.338Z,993.63
2023-04-12T01:29:44.315Z,993.56
2023-04-12T01:30:44.313Z,993.53
2023-04-12T01:31:44.452Z,993.55
2023-04-12T01:32:44.305Z,993.51
2023-04-12T01:33:44.283Z,993.49
2023-04-12T01:34:44.258Z,993.45
2023-04-12T01:35:44.276Z,993.45
2023-04-12T01:36:44.244Z,993.44
2023-04-12T01:37:44.218Z,993.41
2023-04-12T01:38:44.205Z,993.41
2023-04-12T01:39:44.206Z,993.37
2023-04-12T01:40:44.184Z,993.38
2023-04-12T01:41:44.195Z,993.34
2023-04-12T01:42:44.152Z,993.32
2023-04-12T01:43:44.167Z,993.31
2023-04-12T01:44:44.134Z,993.35
2023-04-12T01:45:44.185Z,993.30
2023-04-12T01:46:44.112Z,993.31
2023-04-12T01:47:44.114Z,993.27
2023-04-12T01:48:44.068Z,993.29
2023-04-12T01:49:44.066Z,993.25
2023-04-12T01:50:44.046Z,993.25
2023-04-12T01:51:44.054Z,993.23
2023-04-12T01:52:44.021Z,993.23
2023-04-12T01:53:44.007Z,993.21
2023-04-12T01:54:43.992Z,993.21
2023-04-12T01:55:43.975Z,993.20
2023-04-12T01:56:43.982Z,993.21
2023-04-12T01:57:43.960Z,993.21
2023-04-12T01:58:43.938Z,993.18
2023-04-12T01:59:43.924Z,993.21
2023-04-12T02:00:43.987Z,993.21
2023-04-12T02:01:44.127Z,993.16
2023-04-12T02:02:44.002Z,993.14
2023-04-12T02:03:43.963Z,993.13
2023-04-12T02:04:43.857Z,993.08
2023-04-12T02:05:43.846Z,993.12
2023-04-12T02:06:43.842Z,993.10
2023-04-12T02:07:43.816Z,993.07
2023-04-12T02:08:43.794Z,993.05
2023-04-12T02:09:43.785Z,993.04
2023-04-12T02:10:43.773Z,992.96
2023-04-12T02:11:43.777Z,992.97
2023-04-12T02:12:43.758Z,992.92
2023-04-12T02:13:43.725Z,992.86
2023-04-12T02:14:43.716Z,992.85
2023-04-12T02:15:43.702Z,992.85
2023-04-12T02:16:43.736Z,992.88
2023-04-12T02:17:43.707Z,992.80
2023-04-12T02:18:43.664Z,992.81
2023-04-12T02:19:43.654Z,992.82
2023-04-12T02:20:43.636Z,992.78
2023-04-12T02:21:43.636Z,992.73
2023-04-12T02:22:43.603Z,992.71
2023-04-12T02:23:43.598Z,992.71
2023-04-12T02:24:43.574Z,992.67
2023-04-12T02:25:43.565Z,992.69
2023-04-12T02:26:43.576Z,992.71
2023-04-12T02:27:43.535Z,992.67
2023-04-12T02:28:43.519Z,992.66
2023-04-12T02:29:43.513Z,992.67
2023-04-12T02:30:43.563Z,992.61
2023-04-12T02:31:43.505Z,992.57
2023-04-12T02:32:43.502Z,992.57
2023-04-12T02:33:43.453Z,992.52
2023-04-12T02:34:43.440Z,992.51
2023-04-12T02:35:43.484Z,992.50
2023-04-12T02:36:43.428Z,992.50
2023-04-12T02:37:43.404Z,992.52
2023-04-12T02:38:43.382Z,992.47
2023-04-12T02:39:43.395Z,992.43
2023-04-12T02:40:43.361Z,992.40
2023-04-12T02:41:43.366Z,992.40
2023-04-12T02:42:43.336Z,992.39
2023-04-12T02:43:43.314Z,992.35
2023-04-12T02:44:43.297Z,992.34
2023-04-12T02:45:43.307Z,992.35
2023-04-12T02:46:43.306Z,992.34
2023-04-12T02:47:43.282Z,992.31
2023-04-12T02:48:43.247Z,992.29
2023-04-12T02:49:43.285Z,992.22
2023-04-12T02:50:43.228Z,992.24
2023-04-12T02:51:43.233Z,992.20
2023-04-12T02:52:43.206Z,992.19
2023-04-12T02:53:43.182Z,992.18
2023-04-12T02:54:43.167Z,992.16
2023-04-12T02:55:43.191Z,992.08
2023-04-12T02:56:43.128Z,992.06
2023-04-12T02:57:43.125Z,992.11
2023-04-12T02:58:43.109Z,992.07
2023-04-12T02:59:43.105Z,992.04
2023-04-12T03:00:43.102Z,992.02
2023-04-12T03:01:43.149Z,991.98
2023-04-12T03:02:43.317Z,991.95
2023-04-12T03:03:43.134Z,991.96
2023-04-12T03:04:43.027Z,991.92
2023-04-12T03:05:43.032Z,991.92
2023-04-12T03:06:43.004Z,991.86
2023-04-12T03:07:42.985Z,991.84
2023-04-12T03:08:43.011Z,991.79
2023-04-12T03:09:42.964Z,991.74
2023-04-12T03:10:42.964Z,991.70
2023-04-12T03:11:42.937Z,991.70
2023-04-12T03:12:42.930Z,991.66
2023-04-12T03:13:42.942Z,991.69
2023-04-12T03:14:42.889Z,991.68
2023-04-12T03:15:42.917Z,991.65
2023-04-12T03:16:42.864Z,991.67
2023-04-12T03:17:43.030Z,991.70
2023-04-12T03:18:42.834Z,991.63
2023-04-12T03:19:42.824Z,991.60
2023-04-12T03:20:43.731Z,991.58
2023-04-12T03:21:42.792Z,991.53
2023-04-12T03:22:42.782Z,991.52
2023-04-12T03:23:42.755Z,991.48
2023-04-12T03:24:42.752Z,991.49
2023-04-12T03:25:42.750Z,991.50
2023-04-12T03:26:42.722Z,991.44
2023-04-12T03:27:42.705Z,991.44
2023-04-12T03:28:42.702Z,991.45
2023-04-12T03:29:42.685Z,991.43
2023-04-12T03:30:42.737Z,991.43
2023-04-12T03:31:42.715Z,991.37
2023-04-12T03:32:42.683Z,991.36
2023-04-12T03:33:42.625Z,991.30
2023-04-12T03:34:42.614Z,991.29
2023-04-12T03:35:42.683Z,991.28
2023-04-12T03:36:42.648Z,991.21
2023-04-12T03:37:42.632Z,991.23
2023-04-12T03:38:42.560Z,991.22
2023-04-12T03:39:42.550Z,991.22
2023-04-12T03:40:42.563Z,991.20
2023-04-12T03:41:42.522Z,991.15
2023-04-12T03:42:42.502Z,991.14
2023-04-12T03:43:42.524Z,991.08
2023-04-12T03:44:42.466Z,991.06
2023-04-12T03:45:42.477Z,991.07
2023-04-12T03:46:42.569Z,990.98
2023-04-12T03:47:42.462Z,990.96
2023-04-12T03:48:42.417Z,990.92
2023-04-12T03:49:42.403Z,990.90
2023-04-12T03:50:42.428Z,990.85
2023-04-12T03:51:42.386Z,990.80
2023-04-12T03:52:42.354Z,990.79
2023-04-12T03:53:42.353Z,990.78
2023-04-12T03:54:42.335Z,990.79
2023-04-12T03:55:42.356Z,990.72
2023-04-12T03:56:43.223Z,990.73
2023-04-12T03:57:42.286Z,990.70
2023-04-12T03:58:42.277Z,990.66
2023-04-12T03:59:42.264Z,990.68
2023-04-12T04:00:42.291Z,990.65
2023-04-12T04:01:42.241Z,990.60
2023-04-12T04:02:42.307Z,990.62
2023-04-12T04:03:42.438Z,990.53
2023-04-12T04:04:42.234Z,990.55
2023-04-12T04:05:42.211Z,990.56
2023-04-12T04:06:42.174Z,990.52
2023-04-12T04:07:42.155Z,990.50
2023-04-12T04:08:42.156Z,990.49
2023-04-12T04:09:42.163Z,990.47
2023-04-12T04:10:42.121Z,990.44
2023-04-12T04:11:42.119Z,990.45
2023-04-12T04:12:42.084Z,990.42
2023-04-12T04:13:42.083Z,990.39
2023-04-12T04:14:42.078Z,990.43
2023-04-12T04:15:42.056Z,990.39
2023-04-12T04:16:42.212Z,990.43
2023-04-12T04:17:42.051Z,990.33
2023-04-12T04:18:42.012Z,990.34
2023-04-12T04:19:41.984Z,990.31
2023-04-12T04:20:41.985Z,990.34
2023-04-12T04:21:41.977Z,990.32
2023-04-12T04:22:41.961Z,990.30
2023-04-12T04:23:41.940Z,990.24
2023-04-12T04:24:41.937Z,990.25
2023-04-12T04:25:41.913Z,990.21
2023-04-12T04:26:41.943Z,990.17
2023-04-12T04:27:41.891Z,990.10
2023-04-12T04:28:41.868Z,990.09
2023-04-12T04:29:41.864Z,990.10
2023-04-12T04:30:41.861Z,990.09
2023-04-12T04:31:41.893Z,990.07
2023-04-12T04:32:41.879Z,990.07
2023-04-12T04:33:41.837Z,990.06
2023-04-12T04:34:41.788Z,990.04
2023-04-12T04:35:41.804Z,990.04
2023-04-12T04:36:41.789Z,990.00
2023-04-12T04:37:41.751Z,990.01
2023-04-12T04:38:41.749Z,989.95
2023-04-12T04:39:41.728Z,989.98
2023-04-12T04:40:41.721Z,989.93
2023-04-12T04:41:41.744Z,989.92
2023-04-12T04:42:41.682Z,989.92
2023-04-12T04:43:41.669Z,989.86
2023-04-12T04:44:41.665Z,989.85
2023-04-12T04:45:41.688Z,989.81
2023-04-12T04:46:41.656Z,989.74
2023-04-12T04:47:41.657Z,989.70
2023-04-12T04:48:41.607Z,989.68
2023-04-12T04:49:41.588Z,989.65
2023-04-12T04:50:41.572Z,989.64
2023-04-12T04:51:41.597Z,989.56
2023-04-12T04:52:41.548Z,989.55
2023-04-12T04:53:41.536Z,989.51
2023-04-12T04:54:41.525Z,989.47
2023-04-12T04:55:41.512Z,989.45
2023-04-12T04:56:41.516Z,989.42
2023-04-12T04:57:41.488Z,989.40
2023-04-12T04:58:41.478Z,989.40
2023-04-12T04:59:41.451Z,989.36
2023-04-12T05:00:41.448Z,989.38
2023-04-12T05:01:41.648Z,989.36
2023-04-12T05:02:41.604Z,989.35
2023-04-12T05:03:41.467Z,989.30
2023-04-12T05:04:41.380Z,989.25
2023-04-12T05:05:41.368Z,989.26
2023-04-12T05:06:41.387Z,989.25
2023-04-12T05:07:41.334Z,989.21
2023-04-12T05:08:41.336Z,989.17
2023-04-12T05:09:41.310Z,989.14
2023-04-12T05:10:41.317Z,989.10
2023-04-12T05:11:41.286Z,989.08
2023-04-12T05:12:41.272Z,989.08
2023-04-12T05:13:41.257Z,989.09
2023-04-12T05:14:47.369Z,989.10
2023-04-12T05:15:42.228Z,989.05
2023-04-12T05:16:41.281Z,989.05
2023-04-12T05:17:41.258Z,989.07
2023-04-12T05:18:41.200Z,989.05
2023-04-12T05:19:41.176Z,989.04
2023-04-12T05:20:41.174Z,989.03
2023-04-12T05:21:41.166Z,989.02
2023-04-12T05:22:41.144Z,989.01
2023-04-12T05:23:41.126Z,989.00
2023-04-12T05:24:41.130Z,988.99
2023-04-12T05:25:41.095Z,988.99
2023-04-12T05:26:41.102Z,988.99
2023-04-12T05:27:41.048Z,988.99
2023-04-12T05:28:41.034Z,989.03
2023-04-12T05:29:41.036Z,988.98
2023-04-12T05:30:41.035Z,988.95
2023-04-12T05:31:41.026Z,988.97
2023-04-12T05:32:41.055Z,988.95
2023-04-12T05:33:40.975Z,988.93
2023-04-12T05:34:40.977Z,988.89
2023-04-12T05:35:40.975Z,988.86
2023-04-12T05:36:40.963Z,988.81
2023-04-12T05:37:40.917Z,988.79
2023-04-12T05:38:40.917Z,988.78
2023-04-12T05:39:40.897Z,988.75
2023-04-12T05:40:40.894Z,988.74
2023-04-12T05:41:40.886Z,988.71
2023-04-12T05:42:40.863Z,988.72
2023-04-12T05:43:40.849Z,988.68
2023-04-12T05:44:40.847Z,988.68
2023-04-12T05:45:40.836Z,988.65
2023-04-12T05:46:41.009Z,988.62
2023-04-12T05:47:40.846Z,988.59
2023-04-12T05:48:40.795Z,988.58
2023-04-12T05:49:40.771Z,988.53
2023-04-12T05:50:40.753Z,988.55
2023-04-12T05:51:41.678Z,988.54
2023-04-12T05:52:40.719Z,988.57
2023-04-12T05:53:40.716Z,988.52
2023-04-12T05:54:40.700Z,988.50
2023-04-12T05:55:40.689Z,988.48
2023-04-12T05:56:40.737Z,988.47
2023-04-12T05:57:40.661Z,988.45
2023-04-12T05:58:40.710Z,988.42
2023-04-12T05:59:40.616Z,988.45
2023-04-12T06:00:40.622Z,988.44
2023-04-12T06:01:40.707Z,988.42
2023-04-12T06:02:40.835Z,988.39
2023-04-12T06:03:40.775Z,988.36
2023-04-12T06:04:50.172Z,988.38
2023-04-12T06:05:41.788Z,988.37
2023-04-12T06:06:40.534Z,988.38
2023-04-12T06:07:40.557Z,988.34
2023-04-12T06:08:40.567Z,988.30
2023-04-12T06:09:40.487Z,988.28
2023-04-12T06:10:40.484Z,988.29
2023-04-12T06:11:40.473Z,988.32
2023-04-12T06:12:40.484Z,988.27
2023-04-12T06:13:40.443Z,988.21
2023-04-12T06:14:40.441Z,988.19
2023-04-12T06:15:40.438Z,988.15
2023-04-12T06:16:41.930Z,988.14
2023-04-12T06:17:47.651Z,988.12
2023-04-12T06:18:40.447Z,988.14
2023-04-12T06:19:40.487Z,988.13
2023-04-12T06:20:40.360Z,988.10
2023-04-12T06:21:40.364Z,988.10
2023-04-12T06:22:40.385Z,988.07
2023-04-12T06:23:40.352Z,988.03
2023-04-12T06:24:40.324Z,988.03
2023-04-12T06:25:40.284Z,988.01
2023-04-12T06:26:40.491Z,987.99
2023-04-12T06:27:40.372Z,987.98
2023-04-12T06:28:40.276Z,987.96
2023-04-12T06:29:40.228Z,987.93
2023-04-12T06:30:40.220Z,987.93
2023-04-12T06:31:40.259Z,987.95
2023-04-12T06:32:40.235Z,987.89
2023-04-12T06:33:40.170Z,987.85
2023-04-12T06:34:40.163Z,987.83
2023-04-12T06:35:40.203Z,987.82
2023-04-12T06:36:40.163Z,987.87
2023-04-12T06:37:40.135Z,987.80
2023-04-12T06:38:42.469Z,987.78
2023-04-12T06:39:40.110Z,987.75
2023-04-12T06:40:40.169Z,987.75
2023-04-12T06:41:40.058Z,987.73
2023-04-12T06:42:40.067Z,987.75
2023-04-12T06:43:40.054Z,987.68
2023-04-12T06:44:40.019Z,987.72
2023-04-12T06:45:40.155Z,987.67
2023-04-12T06:46:40.037Z,987.64
2023-04-12T06:47:40.027Z,987.62
2023-04-12T06:48:40.879Z,987.60
2023-04-12T06:49:39.942Z,987.57
2023-04-12T06:50:39.936Z,987.61
2023-04-12T06:51:39.950Z,987.58
2023-04-12T06:52:39.926Z,987.53
2023-04-12T06:53:39.885Z,987.46
2023-04-12T06:54:39.896Z,987.43
2023-04-12T06:55:39.864Z,987.47
2023-04-12T06:56:39.845Z,987.45
2023-04-12T06:57:39.886Z,987.41
2023-04-12T06:58:39.818Z,987.47
2023-04-12T06:59:39.803Z,987.40
2023-04-12T07:00:39.869Z,987.39
2023-04-12T07:01:41.332Z,987.39
2023-04-12T07:02:39.991Z,987.35
2023-04-12T07:03:39.874Z,987.33
2023-04-12T07:04:39.739Z,987.34
2023-04-12T07:05:39.767Z,987.37
2023-04-12T07:06:39.722Z,987.31
2023-04-12T07:07:39.706Z,987.33
2023-04-12T07:08:39.709Z,987.29
2023-04-12T07:09:39.667Z,987.28
2023-04-12T07:10:39.679Z,987.26
2023-04-12T07:11:39.650Z,987.26
2023-04-12T07:12:39.649Z,987.21
2023-04-12T07:13:39.648Z,987.18
2023-04-12T07:14:39.666Z,987.18
2023-04-12T07:15:39.595Z,987.18
2023-04-12T07:16:39.619Z,987.12
2023-04-12T07:17:39.574Z,987.08
2023-04-12T07:18:39.590Z,987.09
2023-04-12T07:19:39.544Z,987.08
2023-04-12T07:20:39.524Z,987.05
2023-04-12T07:21:39.510Z,986.99
2023-04-12T07:22:39.493Z,986.95
2023-04-12T07:23:39.522Z,986.95
2023-04-12T07:24:39.470Z,986.95
2023-04-12T07:25:39.460Z,986.97
2023-04-12T07:26:39.445Z,986.91
2023-04-12T07:27:39.441Z,986.89
2023-04-12T07:28:39.452Z,986.86
2023-04-12T07:29:39.415Z,986.88
2023-04-12T07:30:39.384Z,986.87
2023-04-12T07:31:39.625Z,986.81
2023-04-12T07:32:39.385Z,986.79
2023-04-12T07:33:41.399Z,986.79
2023-04-12T07:34:39.457Z,986.73
2023-04-12T07:35:39.584Z,986.72
2023-04-12T07:36:39.296Z,986.74
2023-04-12T07:37:39.290Z,986.77
2023-04-12T07:38:39.291Z,986.67
2023-04-12T07:39:39.323Z,986.72
2023-04-12T07:40:39.248Z,986.67
2023-04-12T07:41:39.252Z,986.68
2023-04-12T07:42:39.221Z,986.69
2023-04-12T07:43:39.298Z,986.59
2023-04-12T07:44:39.253Z,986.57
2023-04-12T07:45:39.219Z,986.52
2023-04-12T07:46:39.183Z,986.55
2023-04-12T07:47:39.174Z,986.52
2023-04-12T07:48:39.169Z,986.49
2023-04-12T07:49:39.139Z,986.45
2023-04-12T07:50:39.111Z,986.44
2023-04-12T07:51:39.112Z,986.41
2023-04-12T07:52:39.093Z,986.42
2023-04-12T07:53:39.144Z,986.40
2023-04-12T07:54:39.064Z,986.37
2023-04-12T07:55:39.040Z,986.35
2023-04-12T07:56:39.058Z,986.33
2023-04-12T07:57:39.024Z,986.31
2023-04-12T07:58:39.020Z,986.29
2023-04-12T07:59:39.169Z,986.28
2023-04-12T08:00:39.005Z,986.30
2023-04-12T08:01:38.986Z,986.28
2023-04-12T08:02:39.108Z,986.26
2023-04-12T08:03:39.061Z,986.23
2023-04-12T08:04:38.924Z,986.20
2023-04-12T08:05:38.964Z,986.22
2023-04-12T08:06:38.895Z,986.23
2023-04-12T08:07:38.886Z,986.20
2023-04-12T08:08:38.892Z,986.21
2023-04-12T08:09:38.906Z,986.24
2023-04-12T08:10:38.846Z,986.17
2023-04-12T08:11:38.847Z,986.19
2023-04-12T08:12:38.821Z,986.15
2023-04-12T08:13:38.837Z,986.12
2023-04-12T08:14:40.471Z,986.12
2023-04-12T08:15:38.827Z,986.11
2023-04-12T08:16:38.757Z,986.08
2023-04-12T08:17:38.774Z,986.11
2023-04-12T08:18:38.781Z,986.14
2023-04-12T08:19:38.815Z,986.12
2023-04-12T08:20:38.714Z,986.11
2023-04-12T08:21:38.728Z,986.08
2023-04-12T08:22:38.684Z,986.01
2023-04-12T08:23:38.820Z,986.00
2023-04-12T08:24:38.748Z,986.02
2023-04-12T08:25:38.662Z,986.00
2023-04-12T08:26:38.638Z,985.97
2023-04-12T08:27:38.617Z,985.98
2023-04-12T08:28:39.701Z,985.96
2023-04-12T08:29:38.616Z,985.94
2023-04-12T08:30:38.608Z,985.93
2023-04-12T08:31:38.583Z,985.94
2023-04-12T08:32:38.623Z,985.88
2023-04-12T08:33:38.535Z,985.91
2023-04-12T08:34:38.570Z,985.87
2023-04-12T08:35:38.525Z,985.86
2023-04-12T08:36:38.501Z,985.85
2023-04-12T08:37:38.488Z,985.85
2023-04-12T08:38:45.609Z,985.85
2023-04-12T08:39:39.487Z,985.81
2023-04-12T08:40:38.445Z,985.79
2023-04-12T08:41:39.164Z,985.80
2023-04-12T08:42:38.408Z,985.75
2023-04-12T08:43:38.385Z,985.74
2023-04-12T08:44:38.400Z,985.74
2023-04-12T08:45:38.385Z,985.75
2023-04-12T08:46:38.388Z,985.72
2023-04-12T08:47:38.373Z,985.68
2023-04-12T08:48:38.339Z,985.64
2023-04-12T08:49:38.343Z,985.66
2023-04-12T08:50:38.311Z,985.66
2023-04-12T08:51:38.328Z,985.59
2023-04-12T08:52:38.301Z,985.61
2023-04-12T08:53:38.269Z,985.58
2023-04-12T08:54:38.292Z,985.54
2023-04-12T08:55:38.250Z,985.55
2023-04-12T08:56:38.230Z,985.51
2023-04-12T08:57:38.209Z,985.50
2023-04-12T08:58:38.195Z,985.50
2023-04-12T08:59:38.208Z,985.52
2023-04-12T09:00:38.162Z,985.52
2023-04-12T09:01:38.268Z,985.50
2023-04-12T09:02:38.498Z,985.49
2023-04-12T09:03:38.354Z,985.52
2023-04-12T09:04:38.188Z,985.51
2023-04-12T09:05:38.098Z,985.50
2023-04-12T09:06:38.092Z,985.49
2023-04-12T09:07:38.102Z,985.47
2023-04-12T09:08:38.066Z,985.44
2023-04-12T09:09:38.066Z,985.41
2023-04-12T09:10:38.200Z,985.40
2023-04-12T09:11:38.021Z,985.38
2023-04-12T09:12:38.000Z,985.32
2023-04-12T09:13:37.999Z,985.32
2023-04-12T09:14:38.026Z,985.30
2023-04-12T09:15:37.997Z,985.27
2023-04-12T09:16:38.016Z,985.25
2023-04-12T09:17:38.006Z,985.24
2023-04-12T09:18:37.915Z,985.20
2023-04-12T09:19:37.932Z,985.21
2023-04-12T09:20:37.902Z,985.21
2023-04-12T09:21:37.890Z,985.20
2023-04-12T09:22:37.854Z,985.16
2023-04-12T09:23:37.861Z,985.18
2023-04-12T09:24:37.910Z,985.15
2023-04-12T09:25:37.829Z,985.09
2023-04-12T09:26:37.829Z,985.06
2023-04-12T09:27:37.805Z,985.04
2023-04-12T09:28:37.802Z,985.04
2023-04-12T09:29:37.810Z,984.97
2023-04-12T09:30:37.758Z,984.96
2023-04-12T09:31:37.783Z,984.97
2023-04-12T09:32:37.837Z,984.96
2023-04-12T09:33:37.773Z,984.93
2023-04-12T09:34:37.722Z,984.99
2023-04-12T09:35:37.912Z,984.98
2023-04-12T09:36:37.695Z,984.99
2023-04-12T09:37:37.698Z,984.99
2023-04-12T09:38:37.659Z,984.93
2023-04-12T09:39:39.429Z,984.89
2023-04-12T09:40:37.663Z,984.92
2023-04-12T09:41:37.617Z,984.91
2023-04-12T09:42:37.614Z,984.92
2023-04-12T09:43:37.583Z,984.87
2023-04-12T09:44:37.565Z,984.88
2023-04-12T09:45:37.605Z,984.90
2023-04-12T09:46:37.599Z,984.89
2023-04-12T09:47:37.615Z,984.85
2023-04-12T09:48:37.525Z,984.85
2023-04-12T09:49:37.535Z,984.85
2023-04-12T09:50:37.535Z,984.80
2023-04-12T09:51:37.523Z,984.84
2023-04-12T09:52:37.475Z,984.80
2023-04-12T09:53:37.474Z,984.75
2023-04-12T09:54:37.454Z,984.70
2023-04-12T09:55:37.463Z,984.69
2023-04-12T09:56:37.415Z,984.64
2023-04-12T09:57:37.410Z,984.66
2023-04-12T09:58:37.399Z,984.68
2023-04-12T09:59:37.412Z,984.67
2023-04-12T10:00:37.387Z,984.63
2023-04-12T10:01:37.428Z,984.63
2023-04-12T10:02:37.526Z,984.61
2023-04-12T10:03:37.482Z,984.61
2023-04-12T10:04:37.383Z,984.66
2023-04-12T10:05:37.390Z,984.66
2023-04-12T10:06:37.473Z,984.66
2023-04-12T10:07:37.267Z,984.62
2023-04-12T10:08:37.252Z,984.59
2023-04-12T10:09:37.231Z,984.59
2023-04-12T10:10:37.240Z,984.57
2023-04-12T10:11:37.237Z,984.55
2023-04-12T10:12:37.202Z,984.52
2023-04-12T10:13:37.226Z,984.51
2023-04-12T10:14:37.181Z,984.56
2023-04-12T10:15:37.244Z,984.56
2023-04-12T10:16:37.192Z,984.53
2023-04-12T10:17:37.204Z,984.49
2023-04-12T10:18:37.109Z,984.51
2023-04-12T10:19:37.093Z,984.48
2023-04-12T10:20:37.289Z,984.47
2023-04-12T10:21:37.070Z,984.48
2023-04-12T10:22:37.085Z,984.42
2023-04-12T10:23:37.049Z,984.44
2023-04-12T10:24:37.022Z,984.41
2023-04-12T10:25:37.084Z,984.37
2023-04-12T10:26:37.012Z,984.36
2023-04-12T10:27:36.975Z,984.38
2023-04-12T10:28:37.011Z,984.33
2023-04-12T10:29:36.984Z,984.34
2023-04-12T10:30:36.962Z,984.31
2023-04-12T10:31:36.996Z,984.25
2023-04-12T10:32:36.979Z,984.24
2023-04-12T10:33:36.954Z,984.21
2023-04-12T10:34:36.922Z,984.21
2023-04-12T10:35:36.952Z,984.20
2023-04-12T10:36:36.912Z,984.24
2023-04-12T10:37:36.903Z,984.23
2023-04-12T10:38:37.538Z,984.28
2023-04-12T10:39:36.979Z,984.26
2023-04-12T10:40:36.881Z,984.28
2023-04-12T10:41:37.486Z,984.22
2023-04-12T10:42:36.901Z,984.19
2023-04-12T10:43:36.810Z,984.15
2023-04-12T10:44:36.806Z,984.13
2023-04-12T10:45:36.770Z,984.14
2023-04-12T10:46:36.857Z,984.10
2023-04-12T10:47:36.782Z,984.13
2023-04-12T10:48:36.739Z,984.09
2023-04-12T10:49:37.313Z,984.10
2023-04-12T10:50:36.695Z,984.08
2023-04-12T10:51:36.693Z,984.11
2023-04-12T10:52:36.699Z,984.11
2023-04-12T10:53:36.664Z,984.15
2023-04-12T10:54:36.656Z,984.11
2023-04-12T10:55:36.654Z,984.10
2023-04-12T10:56:36.656Z,984.05
2023-04-12T10:57:36.631Z,984.08
2023-04-12T10:58:36.619Z,984.08
2023-04-12T10:59:46.969Z,984.07
2023-04-12T11:00:37.695Z,984.08
2023-04-12T11:01:38.581Z,984.04
2023-04-12T11:02:36.717Z,984.03
2023-04-12T11:03:36.673Z,984.01
2023-04-12T11:04:36.567Z,984.00
2023-04-12T11:05:36.573Z,983.95
2023-04-12T11:06:36.521Z,983.98
2023-04-12T11:07:36.471Z,983.98
2023-04-12T11:08:36.515Z,983.99
2023-04-12T11:09:36.448Z,983.96
2023-04-12T11:10:36.431Z,983.97
2023-04-12T11:11:36.439Z,984.01
2023-04-12T11:12:36.453Z,984.05
2023-04-12T11:13:36.409Z,984.06
2023-04-12T11:14:37.135Z,984.10
2023-04-12T11:15:36.386Z,984.12
2023-04-12T11:16:36.442Z,984.08
2023-04-12T11:17:37.902Z,984.02
2023-04-12T11:18:36.431Z,983.97
2023-04-12T11:19:36.337Z,983.97
2023-04-12T11:20:36.282Z,983.92
2023-04-12T11:21:36.310Z,983.85
2023-04-12T11:22:36.282Z,983.88
2023-04-12T11:23:36.271Z,983.96
2023-04-12T11:24:36.284Z,984.01
2023-04-12T11:25:36.221Z,983.97
2023-04-12T11:26:36.244Z,983.94
2023-04-12T11:27:36.194Z,983.95
2023-04-12T11:28:36.194Z,983.92
2023-04-12T11:29:36.195Z,983.90
2023-04-12T11:30:36.147Z,983.87
2023-04-12T11:31:36.227Z,983.85
2023-04-12T11:32:36.152Z,983.86
2023-04-12T11:33:36.126Z,983.82
2023-04-12T11:34:36.107Z,983.86
2023-04-12T11:35:36.113Z,983.84
2023-04-12T11:36:36.083Z,983.85
2023-04-12T11:37:36.078Z,983.88
2023-04-12T11:38:36.054Z,983.92
2023-04-12T11:39:36.026Z,983.87
2023-04-12T11:40:36.036Z,983.89
2023-04-12T11:41:36.286Z,983.89
2023-04-12T11:42:36.008Z,983.87
2023-04-12T11:43:35.990Z,983.90
2023-04-12T11:44:52.430Z,983.83
2023-04-12T11:45:36.999Z,983.82
2023-04-12T11:46:35.988Z,983.85
2023-04-12T11:47:36.028Z,983.84
2023-04-12T11:48:36.203Z,983.83
2023-04-12T11:49:36.070Z,983.84
2023-04-12T11:50:35.969Z,983.85
2023-04-12T11:51:35.960Z,983.85
2023-04-12T11:52:35.872Z,983.79
2023-04-12T11:53:35.880Z,983.78
2023-04-12T11:54:35.996Z,983.77
2023-04-12T11:55:36.140Z,983.76
2023-04-12T11:56:36.076Z,983.77
2023-04-12T11:57:35.845Z,983.75
2023-04-12T11:58:35.776Z,983.76
2023-04-12T11:59:35.886Z,983.73
2023-04-12T12:00:36.016Z,983.69
2023-04-12T12:01:35.828Z,983.70
2023-04-12T12:02:43.041Z,983.68
2023-04-12T12:03:37.323Z,983.66
2023-04-12T12:04:36.411Z,983.61
2023-04-12T12:05:36.244Z,983.65
2023-04-12T12:06:36.102Z,983.61
2023-04-12T12:07:35.887Z,983.61
2023-04-12T12:08:35.654Z,983.61
2023-04-12T12:09:36.027Z,983.58
2023-04-12T12:10:44.369Z,983.60
2023-04-12T12:11:37.164Z,983.57
2023-04-12T12:12:35.599Z,983.56
2023-04-12T12:13:35.661Z,983.56
2023-04-12T12:14:35.620Z,983.51
2023-04-12T12:15:36.041Z,983.53
2023-04-12T12:16:35.542Z,983.48
2023-04-12T12:17:35.550Z,983.45
2023-04-12T12:18:35.710Z,983.48
2023-04-12T12:19:35.499Z,983.48
2023-04-12T12:20:35.504Z,983.48
2023-04-12T12:21:35.595Z,983.47
2023-04-12T12:22:35.467Z,983.44
2023-04-12T12:23:35.510Z,983.43
2023-04-12T12:24:38.867Z,983.43
2023-04-12T12:25:36.476Z,983.39
2023-04-12T12:26:35.458Z,983.37
2023-04-12T12:27:35.558Z,983.36
2023-04-12T12:28:35.383Z,983.30